createdAt,value
2018-12-13T00:00:13.257Z,93.47
2018-12-13T00:02:43.368Z,92.99
2018-12-13T00:05:15.032Z,92.78
2018-12-13T00:07:46.888Z,93.88
2018-12-13T00:10:17.009Z,93.15
2018-12-13T00:12:47.174Z,92.91
2018-12-13T00:15:22.168Z,93.14
2018-12-13T00:17:52.911Z,93.25
2018-12-13T00:20:22.989Z,92.69
2018-12-13T00:22:52.971Z,91.99
2018-12-13T00:25:24.283Z,91.58
2018-12-13T00:27:56.041Z,92.61
2018-12-13T00:30:26.136Z,92.22
2018-12-13T00:32:57.180Z,91.89
2018-12-13T00:35:27.223Z,92.58
2018-12-13T00:37:58.232Z,92.58
2018-12-13T00:40:29.126Z,92.09
2018-12-13T00:42:59.291Z,91.97
2018-12-13T00:45:30.241Z,91.87
2018-12-13T00:48:00.087Z,91.91
2018-12-13T00:50:30.880Z,91.62
2018-12-13T00:53:01.203Z,91.84
2018-12-13T00:55:32.143Z,92.81
2018-12-13T00:58:03.236Z,92.87
2018-12-13T01:00:33.233Z,93.38
2018-12-13T01:03:04.282Z,93.56
2018-12-13T01:05:34.300Z,93.82
2018-12-13T01:08:05.328Z,93.86
2018-12-13T01:10:36.642Z,94.21
2018-12-13T01:13:09.278Z,94.09
2018-12-13T01:15:40.316Z,94.75
2018-12-13T01:18:11.159Z,95.26
2018-12-13T01:20:41.724Z,95.82
2018-12-13T01:23:12.283Z,95.58
2018-12-13T01:25:43.517Z,95.91
2018-12-13T01:28:14.164Z,95.95
2018-12-13T01:30:43.755Z,96.31
2018-12-13T01:33:15.242Z,96.21
2018-12-13T01:35:47.418Z,96.22
2018-12-13T01:38:17.513Z,96.93
2018-12-13T01:40:47.286Z,96.89
2018-12-13T01:43:18.484Z,96.59
2018-12-13T01:45:48.455Z,96.37
2018-12-13T01:48:19.337Z,96.60
2018-12-13T01:50:51.478Z,97.05
2018-12-13T01:53:23.504Z,97.63
2018-12-13T01:55:54.447Z,98.03
2018-12-13T01:58:24.952Z,98.42
2018-12-13T02:00:55.766Z,98.59
2018-12-13T02:03:26.299Z,99.17
2018-12-13T02:05:56.724Z,98.49
2018-12-13T02:08:27.394Z,98.73
2018-12-13T02:10:58.174Z,98.52
2018-12-13T02:13:28.396Z,98.58
2018-12-13T02:15:59.372Z,97.98
2018-12-13T02:18:29.372Z,96.76
2018-12-13T02:21:00.896Z,96.72
2018-12-13T02:23:31.192Z,96.27
2018-12-13T02:26:01.576Z,96.68
2018-12-13T02:28:32.554Z,96.50
2018-12-13T02:31:03.490Z,96.29
2018-12-13T02:33:33.727Z,95.62
2018-12-13T02:36:05.378Z,95.73
2018-12-13T02:38:35.506Z,95.06
2018-12-13T02:41:05.671Z,95.17
2018-12-13T02:43:36.783Z,95.00
2018-12-13T02:46:07.951Z,94.46
2018-12-13T02:48:38.436Z,94.73
2018-12-13T02:51:08.730Z,94.52
2018-12-13T02:53:39.860Z,95.06
2018-12-13T02:56:09.798Z,95.25
2018-12-13T02:58:40.805Z,95.01
2018-12-13T03:01:10.936Z,95.22
2018-12-13T03:03:42.185Z,94.97
2018-12-13T03:06:14.670Z,94.84
2018-12-13T03:08:44.179Z,94.43
2018-12-13T03:11:15.739Z,93.41
2018-12-13T03:13:46.667Z,93.22
2018-12-13T03:16:18.759Z,92.91
2018-12-13T03:18:50.910Z,93.07
2018-12-13T03:21:21.736Z,93.42
2018-12-13T03:23:51.782Z,93.79
2018-12-13T03:26:22.834Z,93.32
2018-12-13T03:28:53.880Z,92.90
2018-12-13T03:31:23.953Z,92.90
2018-12-13T03:33:54.924Z,92.29
2018-12-13T03:36:26.817Z,92.20
2018-12-13T03:38:56.300Z,92.30
2018-12-13T03:44:06.957Z,92.37
2018-12-13T03:46:36.903Z,92.80
2018-12-13T03:49:07.790Z,92.33
2018-12-13T03:51:38.901Z,91.74
2018-12-13T03:54:10.209Z,91.70
2018-12-13T03:56:43.593Z,91.72
2018-12-13T03:59:17.827Z,90.39
2018-12-13T04:01:50.931Z,90.34
2018-12-13T04:04:21.913Z,90.31
2018-12-13T04:06:52.964Z,90.45
2018-12-13T04:09:23.003Z,90.48
2018-12-13T04:11:53.046Z,90.55
2018-12-13T04:14:24.062Z,90.34
2018-12-13T04:16:55.731Z,91.04
2018-12-13T04:19:26.077Z,91.41
2018-12-13T04:21:56.105Z,90.68
2018-12-13T04:24:27.007Z,90.94
2018-12-13T04:26:57.153Z,91.62
2018-12-13T04:29:28.171Z,91.99
2018-12-13T04:31:58.114Z,91.83
2018-12-13T04:34:29.652Z,91.26
2018-12-13T04:37:02.987Z,90.51
2018-12-13T04:39:33.159Z,90.92
2018-12-13T04:42:04.207Z,90.43
2018-12-13T04:44:35.326Z,90.89
2018-12-13T04:47:05.512Z,91.82
2018-12-13T04:49:36.044Z,91.66
2018-12-13T04:52:08.500Z,91.81
2018-12-13T04:54:38.079Z,90.47
2018-12-13T04:57:09.165Z,91.25
2018-12-13T04:59:40.345Z,91.61
2018-12-13T05:02:10.390Z,91.38
2018-12-13T05:04:41.444Z,90.85
2018-12-13T05:07:12.313Z,91.56
2018-12-13T05:09:42.252Z,90.95
2018-12-13T05:12:13.294Z,90.90
2018-12-13T05:14:43.220Z,90.37
2018-12-13T05:17:14.761Z,90.36
2018-12-13T05:19:44.328Z,90.08
2018-12-13T05:22:16.103Z,90.39
2018-12-13T05:24:48.608Z,90.70
2018-12-13T05:27:19.203Z,91.17
2018-12-13T05:29:50.436Z,91.05
2018-12-13T05:32:21.416Z,91.87
2018-12-13T05:34:52.705Z,92.40
2018-12-13T05:37:23.279Z,92.37
2018-12-13T05:39:53.407Z,92.16
2018-12-13T05:42:24.250Z,92.37
2018-12-13T05:44:55.968Z,92.19
2018-12-13T05:47:26.336Z,92.71
2018-12-13T05:49:56.622Z,92.45
2018-12-13T05:52:28.000Z,91.98
2018-12-13T05:54:58.815Z,91.80
2018-12-13T05:57:29.447Z,91.10
2018-12-13T06:00:00.378Z,90.67
2018-12-13T06:02:31.227Z,91.21
2018-12-13T06:05:01.597Z,91.88
2018-12-13T06:07:32.580Z,91.51
2018-12-13T06:10:03.168Z,91.58
2018-12-13T06:12:33.663Z,91.58
2018-12-13T06:15:03.588Z,91.64
2018-12-13T06:17:34.844Z,92.49
2018-12-13T06:20:05.711Z,91.84
2018-12-13T06:22:35.633Z,91.29
2018-12-13T06:25:08.163Z,92.19
2018-12-13T06:27:40.327Z,92.42
2018-12-13T06:30:10.557Z,92.72
2018-12-13T06:32:41.604Z,91.76
2018-12-13T06:35:12.723Z,92.44
2018-12-13T06:37:43.691Z,92.40
2018-12-13T06:40:15.689Z,91.79
2018-12-13T06:42:47.708Z,92.16
2018-12-13T06:45:17.719Z,92.27
2018-12-13T06:47:50.498Z,92.93
2018-12-13T06:50:22.771Z,92.74
2018-12-13T06:52:53.822Z,92.58
2018-12-13T06:55:23.801Z,92.46
2018-12-13T06:57:54.768Z,93.05
2018-12-13T07:00:25.888Z,93.09
2018-12-13T07:02:56.956Z,92.55
2018-12-13T07:05:27.867Z,92.43
2018-12-13T07:07:58.845Z,92.84
2018-12-13T07:10:29.649Z,92.61
2018-12-13T07:12:59.875Z,92.46
2018-12-13T07:15:30.036Z,91.74
2018-12-13T07:18:00.944Z,92.17
2018-12-13T07:20:31.987Z,91.82
2018-12-13T07:23:01.902Z,92.12
2018-12-13T07:25:32.987Z,91.98
2018-12-13T07:28:02.997Z,91.84
2018-12-13T07:30:33.840Z,91.73
2018-12-13T07:33:03.880Z,91.81
2018-12-13T07:35:35.158Z,92.31
2018-12-13T07:38:05.989Z,92.34
2018-12-13T07:40:35.859Z,91.80
2018-12-13T07:43:06.930Z,92.21
2018-12-13T07:45:38.559Z,90.94
2018-12-13T07:48:10.911Z,91.67
2018-12-13T07:50:41.888Z,91.52
2018-12-13T07:53:13.983Z,92.00
2018-12-13T07:55:44.025Z,91.98
2018-12-13T07:58:14.067Z,92.38
2018-12-13T08:00:44.072Z,92.38
2018-12-13T08:03:18.819Z,91.67
2018-12-13T08:05:50.045Z,91.68
2018-12-13T08:08:21.148Z,91.64
2018-12-13T08:10:51.162Z,91.62
2018-12-13T08:13:21.586Z,90.58
2018-12-13T08:15:51.139Z,89.44
2018-12-13T08:18:23.129Z,89.81
2018-12-13T08:20:54.822Z,89.82
2018-12-13T08:23:25.243Z,89.46
2018-12-13T08:25:55.575Z,90.31
2018-12-13T08:28:26.037Z,89.44
2018-12-13T08:30:57.900Z,89.07
2018-12-13T08:33:27.610Z,89.87
2018-12-13T08:35:58.118Z,89.83
2018-12-13T08:38:28.731Z,89.86
2018-12-13T08:40:59.236Z,89.76
2018-12-13T08:43:30.303Z,89.11
2018-12-13T08:46:00.759Z,89.59
2018-12-13T08:48:31.408Z,89.90
2018-12-13T08:51:02.240Z,89.10
2018-12-13T08:53:32.917Z,88.74
2018-12-13T08:56:08.744Z,89.08
2018-12-13T08:58:40.197Z,89.02
2018-12-13T09:01:11.334Z,89.04
2018-12-13T09:03:42.484Z,88.93
2018-12-13T09:06:12.546Z,88.72
2018-12-13T09:08:43.178Z,89.83
2018-12-13T09:11:14.254Z,89.25
2018-12-13T09:13:44.225Z,89.07
2018-12-13T09:16:16.385Z,88.27
2018-12-13T09:18:48.211Z,88.42
2018-12-13T09:21:20.304Z,88.65
2018-12-13T09:23:51.223Z,88.23
2018-12-13T09:26:21.595Z,88.73
2018-12-13T09:28:51.367Z,88.87
2018-12-13T09:31:22.586Z,89.25
2018-12-13T09:33:53.438Z,89.23
2018-12-13T09:36:23.496Z,89.24
2018-12-13T09:38:55.514Z,89.09
2018-12-13T09:41:27.456Z,88.73
2018-12-13T09:43:59.765Z,88.62
2018-12-13T09:46:31.549Z,88.97
2018-12-13T09:49:02.409Z,89.53
2018-12-13T09:51:32.617Z,89.60
2018-12-13T09:54:03.716Z,89.45
2018-12-13T09:56:34.385Z,88.51
2018-12-13T09:59:04.699Z,88.66
2018-12-13T10:01:35.559Z,88.90
2018-12-13T10:04:06.479Z,89.63
2018-12-13T10:06:36.674Z,89.82
2018-12-13T10:09:08.513Z,90.10
2018-12-13T10:11:38.478Z,90.15
2018-12-13T10:14:08.614Z,90.83
2018-12-13T10:16:39.815Z,90.68
2018-12-13T10:19:10.524Z,90.15
2018-12-13T10:21:42.587Z,90.32
2018-12-13T10:24:12.328Z,89.86
2018-12-13T10:26:42.946Z,90.08
2018-12-13T10:29:13.393Z,89.08
2018-12-13T10:31:43.666Z,89.27
2018-12-13T10:34:14.274Z,88.92
2018-12-13T10:36:44.432Z,89.00
2018-12-13T10:39:14.746Z,89.11
2018-12-13T10:41:44.423Z,88.69
2018-12-13T10:44:18.654Z,89.43
2018-12-13T10:46:49.655Z,89.48
2018-12-13T10:49:20.723Z,89.62
2018-12-13T10:51:50.773Z,89.85
2018-12-13T10:54:22.727Z,89.69
2018-12-13T10:56:52.623Z,89.90
2018-12-13T10:59:22.803Z,89.17
2018-12-13T11:01:59.379Z,89.27
2018-12-13T11:04:30.853Z,89.87
2018-12-13T11:07:00.974Z,89.71
2018-12-13T11:09:31.816Z,89.94
2018-12-13T11:12:03.060Z,89.82
2018-12-13T11:14:32.948Z,89.94
2018-12-13T11:17:03.752Z,89.76
2018-12-13T11:19:35.055Z,89.99
2018-12-13T11:22:05.925Z,90.05
2018-12-13T11:24:36.867Z,89.83
2018-12-13T11:27:17.730Z,90.74
2018-12-13T11:30:06.426Z,90.72
2018-12-13T11:32:35.881Z,91.08
2018-12-13T11:35:05.977Z,91.04
2018-12-13T11:37:39.715Z,90.76
2018-12-13T11:40:16.865Z,90.81
2018-12-13T11:42:47.437Z,90.80
2018-12-13T11:45:17.848Z,91.40
2018-12-13T11:47:48.192Z,91.25
2018-12-13T11:50:19.208Z,91.28
2018-12-13T11:52:49.692Z,90.74
2018-12-13T11:55:41.522Z,91.03
2018-12-13T11:58:15.523Z,91.34
2018-12-13T12:00:45.069Z,90.88
2018-12-13T12:03:17.350Z,90.75
2018-12-13T12:05:49.322Z,90.36
2018-12-13T12:08:21.197Z,91.15
2018-12-13T12:10:52.062Z,90.88
2018-12-13T12:13:22.308Z,90.82
2018-12-13T12:15:54.219Z,91.49
2018-12-13T12:18:26.027Z,91.23
2018-12-13T12:20:57.253Z,91.52
2018-12-13T12:23:28.323Z,91.12
2018-12-13T12:25:58.993Z,91.06
2018-12-13T12:28:29.431Z,91.03
2018-12-13T12:31:00.118Z,91.85
2018-12-13T12:33:31.603Z,91.78
2018-12-13T12:36:02.351Z,92.07
2018-12-13T12:38:33.428Z,91.99
2018-12-13T12:41:03.339Z,91.91
2018-12-13T12:43:34.320Z,92.11
2018-12-13T12:46:05.182Z,91.67
2018-12-13T12:48:41.023Z,92.33
2018-12-13T12:51:18.159Z,93.06
2018-12-13T12:53:48.331Z,93.04
2018-12-13T12:56:19.470Z,93.05
2018-12-13T12:58:49.392Z,92.84
2018-12-13T13:01:20.389Z,92.94
2018-12-13T13:03:51.460Z,92.70
2018-12-13T13:06:22.328Z,92.84
2018-12-13T13:08:52.993Z,92.85
2018-12-13T13:11:23.514Z,92.93
2018-12-13T13:13:54.398Z,93.04
2018-12-13T13:16:24.423Z,92.61
2018-12-13T13:18:55.608Z,92.49
2018-12-13T13:21:26.418Z,92.85
2018-12-13T13:23:57.351Z,92.81
2018-12-13T13:26:27.389Z,92.62
2018-12-13T13:28:58.455Z,92.85
2018-12-13T13:31:28.388Z,93.28
2018-12-13T13:34:00.411Z,92.59
2018-12-13T13:36:36.008Z,92.67
2018-12-13T13:39:08.461Z,92.84
2018-12-13T13:41:38.551Z,93.33
2018-12-13T13:44:10.150Z,93.00
2018-12-13T13:46:42.500Z,93.60
2018-12-13T13:49:13.880Z,93.49
2018-12-13T13:51:43.398Z,93.58
2018-12-13T13:54:14.652Z,93.48
2018-12-13T13:56:44.803Z,93.60
2018-12-13T13:59:15.729Z,93.16
2018-12-13T14:01:45.230Z,93.27
2018-12-13T14:04:17.612Z,93.56
2018-12-13T14:06:48.700Z,93.96
2018-12-13T14:09:18.589Z,93.74
2018-12-13T14:11:49.459Z,93.90
2018-12-13T14:14:20.445Z,93.96
2018-12-13T14:16:50.748Z,93.91
2018-12-13T14:19:22.711Z,93.19
2018-12-13T14:21:54.647Z,92.99
2018-12-13T14:24:26.635Z,92.15
2018-12-13T14:26:56.804Z,92.20
2018-12-13T14:29:28.703Z,91.47
2018-12-13T14:32:00.736Z,91.21
2018-12-13T14:34:30.283Z,91.20
2018-12-13T14:37:02.878Z,91.01
2018-12-13T14:39:34.477Z,89.91
2018-12-13T14:42:05.312Z,89.71
2018-12-13T14:44:35.674Z,89.68
2018-12-13T14:47:06.900Z,89.98
2018-12-13T14:49:36.785Z,89.97
2018-12-13T14:52:09.510Z,90.18
2018-12-13T14:54:45.255Z,90.11
2018-12-13T14:57:17.750Z,89.65
2018-12-13T14:59:47.960Z,89.81
2018-12-13T15:02:18.904Z,90.25
2018-12-13T15:04:49.466Z,89.97
2018-12-13T15:07:20.061Z,90.62
2018-12-13T15:09:51.263Z,90.75
2018-12-13T15:12:22.202Z,91.55
2018-12-13T15:14:51.800Z,91.71
2018-12-13T15:17:23.126Z,91.74
2018-12-13T15:19:54.141Z,92.42
2018-12-13T15:22:23.924Z,92.01
2018-12-13T15:24:55.432Z,92.14
2018-12-13T15:27:26.020Z,92.39
2018-12-13T15:29:56.892Z,92.67
2018-12-13T15:32:28.071Z,92.71
2018-12-13T15:34:59.070Z,92.90
2018-12-13T15:37:29.051Z,92.59
2018-12-13T15:40:00.126Z,92.79
2018-12-13T15:42:30.629Z,92.57
2018-12-13T15:45:02.991Z,92.78
2018-12-13T15:47:32.920Z,92.71
2018-12-13T15:50:03.212Z,92.67
2018-12-13T15:52:34.100Z,92.33
2018-12-13T15:55:04.228Z,92.71
2018-12-13T15:57:35.115Z,92.33
2018-12-13T16:00:05.991Z,92.40
2018-12-13T16:02:36.147Z,92.53
2018-12-13T16:05:08.096Z,92.23
2018-12-13T16:07:40.031Z,92.46
2018-12-13T16:10:10.137Z,92.44
2018-12-13T16:12:39.670Z,92.77
2018-12-13T16:15:12.086Z,92.56
2018-12-13T16:17:43.395Z,92.65
2018-12-13T16:20:14.264Z,93.40
2018-12-13T16:22:44.264Z,93.24
2018-12-13T16:25:15.271Z,93.59
2018-12-13T16:27:44.843Z,93.83
2018-12-13T16:30:22.301Z,94.40
2018-12-13T16:32:52.655Z,94.74
2018-12-13T16:35:23.128Z,94.94
2018-12-13T16:37:53.993Z,94.61
2018-12-13T16:40:24.225Z,94.57
2018-12-13T16:42:55.707Z,94.70
2018-12-13T16:45:26.107Z,94.90
2018-12-13T16:47:56.720Z,94.86
2018-12-13T16:50:27.349Z,95.35
2018-12-13T16:52:57.343Z,94.92
2018-12-13T16:55:29.057Z,95.20
2018-12-13T16:57:59.566Z,94.71
2018-12-13T17:00:30.055Z,94.76
2018-12-13T17:03:00.449Z,95.39
2018-12-13T17:05:31.225Z,94.94
2018-12-13T17:08:01.407Z,95.57
2018-12-13T17:10:32.309Z,96.03
2018-12-13T17:13:02.424Z,95.88
2018-12-13T17:15:32.152Z,96.04
2018-12-13T17:18:03.515Z,95.90
2018-12-13T17:20:34.140Z,96.13
2018-12-13T17:23:04.950Z,95.79
2018-12-13T17:25:35.396Z,95.70
2018-12-13T17:28:05.727Z,94.82
2018-12-13T17:30:36.357Z,94.87
2018-12-13T17:33:07.326Z,94.49
2018-12-13T17:35:38.061Z,94.50
2018-12-13T17:38:08.434Z,93.95
2018-12-13T17:40:39.059Z,93.84
2018-12-13T17:43:09.579Z,93.90
2018-12-13T17:45:40.621Z,93.98
2018-12-13T17:48:10.634Z,94.59
2018-12-13T17:50:42.040Z,94.70
2018-12-13T17:53:12.606Z,94.47
2018-12-13T17:55:43.481Z,94.65
2018-12-13T17:58:13.775Z,94.44
2018-12-13T18:00:44.727Z,94.41
2018-12-13T18:03:15.693Z,94.66
2018-12-13T18:05:45.328Z,94.58
2018-12-13T18:08:16.623Z,94.04
2018-12-13T18:10:47.843Z,94.50
2018-12-13T18:13:18.359Z,94.72
2018-12-13T18:15:55.528Z,94.75
2018-12-13T18:18:25.686Z,94.86
2018-12-13T18:20:55.902Z,94.61
2018-12-13T18:26:21.847Z,94.96
2018-12-13T18:31:34.867Z,95.73
2018-12-13T18:34:05.763Z,95.51
2018-12-13T18:36:35.821Z,95.39
2018-12-13T18:39:08.175Z,95.45
2018-12-13T18:41:39.827Z,95.32
2018-12-13T18:44:10.727Z,95.39
2018-12-13T18:46:40.827Z,95.23
2018-12-13T18:49:10.671Z,95.10
2018-12-13T18:51:42.517Z,94.86
2018-12-13T18:54:12.926Z,94.71
2018-12-13T18:56:44.002Z,94.21
2018-12-13T18:59:14.849Z,94.06
2018-12-13T19:01:45.282Z,94.17
2018-12-13T19:04:15.658Z,94.07
2018-12-13T19:06:45.248Z,94.13
2018-12-13T19:09:14.925Z,93.36
2018-12-13T19:11:45.108Z,93.31
2018-12-13T19:14:17.039Z,92.62
2018-12-13T19:16:49.435Z,92.47
2018-12-13T19:19:21.127Z,93.09
2018-12-13T19:21:51.613Z,92.49
2018-12-13T19:24:21.992Z,92.66
2018-12-13T19:26:52.243Z,92.54
2018-12-13T19:29:23.262Z,92.74
2018-12-13T19:31:54.131Z,92.56
2018-12-13T19:34:24.468Z,92.09
2018-12-13T19:37:01.172Z,92.36
2018-12-13T19:39:32.159Z,92.23
2018-12-13T19:42:02.118Z,92.57
2018-12-13T19:44:33.045Z,93.23
2018-12-13T19:47:03.160Z,93.06
2018-12-13T19:49:34.158Z,92.56
2018-12-13T19:54:47.789Z,92.43
2018-12-13T19:57:18.164Z,92.39
2018-12-13T19:59:49.612Z,92.48
2018-12-13T20:02:19.184Z,92.65
2018-12-13T20:04:50.235Z,93.02
2018-12-13T20:07:21.301Z,92.67
2018-12-13T20:09:52.373Z,92.95
2018-12-13T20:12:22.351Z,92.61
2018-12-13T20:14:53.273Z,92.86
2018-12-13T20:17:24.270Z,92.93
2018-12-13T20:19:55.338Z,92.87
2018-12-13T20:22:26.308Z,92.87
2018-12-13T20:24:57.276Z,93.06
2018-12-13T20:27:27.440Z,93.05
2018-12-13T20:29:57.336Z,93.38
2018-12-13T20:32:28.431Z,93.77
2018-12-13T20:34:58.568Z,94.24
2018-12-13T20:37:29.449Z,94.29
2018-12-13T20:39:59.462Z,94.18
2018-12-13T20:42:30.109Z,94.23
2018-12-13T20:45:00.417Z,94.50
2018-12-13T20:47:31.360Z,94.54
2018-12-13T20:50:05.049Z,94.74
2018-12-13T20:52:37.537Z,95.05
2018-12-13T20:55:08.445Z,95.10
2018-12-13T20:57:38.465Z,94.83
2018-12-13T21:00:10.791Z,94.75
2018-12-13T21:02:42.469Z,94.56
2018-12-13T21:05:14.384Z,94.81
2018-12-13T21:07:52.916Z,94.43
2018-12-13T21:10:23.536Z,94.53
2018-12-13T21:12:54.549Z,93.98
2018-12-13T21:15:27.440Z,94.45
2018-12-13T21:17:58.881Z,94.46
2018-12-13T21:20:32.291Z,94.68
2018-12-13T21:23:03.448Z,95.43
2018-12-13T21:25:33.600Z,95.52
2018-12-13T21:28:04.440Z,95.65
2018-12-13T21:30:35.656Z,95.98
2018-12-13T21:33:07.548Z,95.46
2018-12-13T21:35:39.518Z,95.56
2018-12-13T21:38:09.672Z,95.04
2018-12-13T21:40:41.693Z,95.04
2018-12-13T21:43:13.582Z,95.44
2018-12-13T21:45:43.633Z,95.23
2018-12-13T21:48:13.335Z,95.33
2018-12-13T21:50:45.170Z,95.03
2018-12-13T21:53:15.549Z,95.02
2018-12-13T21:55:45.540Z,95.31
2018-12-13T21:58:15.234Z,95.38
2018-12-13T22:00:45.388Z,94.98
2018-12-13T22:03:15.777Z,95.15
2018-12-13T22:05:45.362Z,94.88
2018-12-13T22:08:17.595Z,95.35
2018-12-13T22:10:47.714Z,95.16
2018-12-13T22:13:18.902Z,95.69
2018-12-13T22:15:48.609Z,95.76
2018-12-13T22:18:19.597Z,95.96
2018-12-13T22:20:53.244Z,95.43
2018-12-13T22:23:23.749Z,95.23
2018-12-13T22:25:55.030Z,95.03
2018-12-13T22:28:24.719Z,95.25
2018-12-13T22:30:54.856Z,95.53
2018-12-13T22:33:27.024Z,95.89
2018-12-13T22:35:57.597Z,95.93
2018-12-13T22:38:28.054Z,95.95
2018-12-13T22:40:58.265Z,95.84
2018-12-13T22:43:32.821Z,95.94
2018-12-13T22:46:04.160Z,95.53
2018-12-13T22:48:35.817Z,95.70
2018-12-13T22:51:06.888Z,95.91
2018-12-13T22:53:36.934Z,96.06
2018-12-13T22:56:07.979Z,96.04
2018-12-13T22:58:37.926Z,95.45
2018-12-13T23:01:08.967Z,95.97
2018-12-13T23:03:42.960Z,95.37
2018-12-13T23:06:13.080Z,95.79
2018-12-13T23:08:43.599Z,95.92
2018-12-13T23:11:14.429Z,95.48
2018-12-13T23:13:44.915Z,95.56
2018-12-13T23:16:16.966Z,95.42
2018-12-13T23:18:49.055Z,95.36
2018-12-13T23:21:21.962Z,95.74
2018-12-13T23:23:53.231Z,95.31
2018-12-13T23:26:23.157Z,95.24
2018-12-13T23:28:55.024Z,95.42
2018-12-13T23:31:25.439Z,95.08
2018-12-13T23:33:55.053Z,95.46
2018-12-13T23:36:26.100Z,95.08
2018-12-13T23:38:58.183Z,95.04
2018-12-13T23:41:28.107Z,95.18
2018-12-13T23:43:58.024Z,94.55
2018-12-13T23:46:29.344Z,95.36
2018-12-13T23:49:00.254Z,95.39
2018-12-13T23:51:30.115Z,95.26
2018-12-13T23:54:07.937Z,94.71
2018-12-13T23:56:40.668Z,94.88
2018-12-13T23:59:11.261Z,95.25
